Time;durP1;ratioP1;P1;durP2;ratioP2;P2;SDS_P1;SDS_P2;PMS_P1;PMS_P2;Temp;Humidity;BMP_temperature;BMP_pressure;BME280_temperature;BME280_humidity;BME280_pressure;Samples;Min_cycle;Max_cycle;Signal;HPM_P1;HPM_P2
2022/11/05 07:51:25;;;;;;;;;7.00;4.00;;;;;9.66;93.89;101832.59;6145089;23;49975;-72
2022/11/05 07:53:51;;;;;;;;;6.00;6.00;;;;;9.66;93.42;101819.50;6145478;23;49706;-72
2022/11/05 07:56:16;;;;;;;;;7.25;6.00;;;;;9.63;94.26;101807.13;6169150;23;49601;-72
2022/11/05 07:58:42;;;;;;;;;6.50;6.50;;;;;9.67;93.82;101801.19;6145099;23;52109;-72
2022/11/05 08:01:07;;;;;;;;;6.00;4.00;;;;;9.94;93.54;101826.72;6144858;23;49489;-72
2022/11/05 08:03:33;;;;;;;;;6.50;6.50;;;;;9.98;92.38;101818.16;6145555;23;49566;-73
2022/11/05 08:05:58;;;;;;;;;7.00;5.75;;;;;9.85;92.81;101792.28;6145758;23;49968;-72
2022/11/05 08:08:24;;;;;;;;;6.00;4.00;;;;;10.15;92.38;101832.84;6144887;23;50516;-72
2022/11/05 08:10:50;;;;;;;;;3.75;3.75;;;;;10.17;93.27;101825.03;6145532;23;49584;-70
2022/11/05 08:13:16;;;;;;;;;6.75;4.75;;;;;9.92;92.00;101768.06;6145873;23;49824;-72
2022/11/05 08:15:42;;;;;;;;;4.50;4.50;;;;;10.40;91.79;101831.19;6146045;23;49816;-71
2022/11/05 08:18:14;;;;;;;;;7.75;5.75;;;;;10.46;91.53;101824.47;6144279;23;51932;-71
2022/11/05 08:20:41;;;;;;;;;6.00;4.00;;;;;10.53;91.57;101834.38;6145322;23;49702;-71
2022/11/05 08:23:06;;;;;;;;;4.50;4.50;;;;;10.49;90.72;101814.06;6145885;23;49670;-71
2022/11/05 08:25:32;;;;;;;;;5.50;4.50;;;;;10.36;90.56;101793.44;6145488;23;49771;-72
2022/11/05 08:28:06;;;;;;;;;6.00;3.50;;;;;10.70;90.29;101834.97;6144805;23;52184;-72
2022/11/05 08:30:36;;;;;;;;;6.25;4.50;;;;;10.76;89.38;101852.72;6145389;23;49609;-72
2022/11/05 08:33:04;;;;;;;;;7.00;4.75;;;;;10.80;89.32;101823.97;6145560;23;49671;-72
2022/11/05 08:35:34;;;;;;;;;3.50;3.50;;;;;10.84;88.97;101830.25;6147338;23;49745;-72
2022/11/05 08:38:02;;;;;;;;;4.00;4.00;;;;;10.29;88.24;101723.19;6144436;23;52422;-73
2022/11/05 08:40:30;;;;;;;;;3.50;3.00;;;;;10.98;88.23;101833.38;6145486;23;49616;-72
2022/11/05 08:42:57;;;;;;;;;4.25;3.75;;;;;10.88;87.64;101819.91;6145471;23;50228;-72
2022/11/05 08:45:23;;;;;;;;;5.50;3.75;;;;;11.12;88.03;101840.03;6145581;23;49684;-72
2022/11/05 08:47:49;;;;;;;;;8.00;7.00;;;;;11.16;87.68;101834.91;6145167;23;49797;-71
2022/11/05 08:50:14;;;;;;;;;8.25;4.50;;;;;11.36;88.03;101847.88;6164645;23;49657;-77
2022/11/05 08:52:40;;;;;;;;;8.00;6.50;;;;;11.05;86.28;101774.94;6175054;23;49652;-75
2022/11/05 08:55:05;;;;;;;;;7.75;7.75;;;;;11.27;86.46;101795.88;6178210;23;49845;-74
2022/11/05 08:57:31;;;;;;;;;7.50;4.75;;;;;10.13;85.04;101572.13;6174901;23;50766;-74
2022/11/05 08:59:56;;;;;;;;;8.25;5.00;;;;;11.64;84.81;101832.19;6175031;23;49592;-77
2022/11/05 09:02:21;;;;;;;;;7.75;4.50;;;;;11.81;84.03;101842.41;6174824;23;49886;-74
2022/11/05 09:04:47;;;;;;;;;10.00;7.25;;;;;11.14;83.21;101746.38;6175774;23;49934;-73
2022/11/05 09:07:12;;;;;;;;;9.50;8.50;;;;;11.84;83.83;101835.50;6174889;23;49604;-72
2022/11/05 09:09:38;;;;;;;;;3.75;3.75;;;;;11.31;83.58;101733.78;6175504;23;49740;-73
2022/11/05 09:12:03;;;;;;;;;4.00;3.50;;;;;11.99;84.11;101832.50;6174942;23;49534;-72
2022/11/05 09:14:30;;;;;;;;;4.75;4.75;;;;;12.10;82.53;101838.09;6173599;23;49987;-71
2022/11/05 09:16:55;;;;;;;;;3.00;2.00;;;;;10.84;81.91;101642.00;6174704;23;50714;-75
2022/11/05 09:19:21;;;;;;;;;5.75;4.00;;;;;10.61;81.85;101566.81;6174792;23;49722;-73
2022/11/05 09:21:46;;;;;;;;;3.00;2.25;;;;;12.17;81.12;101824.28;6174529;23;49732;-73
2022/11/05 09:24:12;;;;;;;;;4.25;4.25;;;;;12.26;81.17;101830.75;6175746;23;49667;-77
2022/11/05 09:26:37;;;;;;;;;3.00;3.00;;;;;12.35;81.12;101831.84;6176542;23;49972;-73
2022/11/05 09:29:02;;;;;;;;;3.50;2.50;;;;;12.38;81.31;101826.69;6147460;23;49645;-71
2022/11/05 09:31:27;;;;;;;;;6.50;4.00;;;;;12.14;80.30;101785.59;6175541;23;49709;-72
2022/11/05 09:33:53;;;;;;;;;1.75;1.75;;;;;12.47;80.68;101809.44;6176176;23;49606;-76
2022/11/05 09:36:18;;;;;;;;;3.00;3.00;;;;;12.46;80.04;101793.59;6175128;23;50662;-72
2022/11/05 09:38:44;;;;;;;;;2.50;2.25;;;;;12.74;79.37;101826.84;6175108;23;49888;-72
2022/11/05 09:41:25;;;;;;;;;5.00;5.00;;;;;12.83;78.48;101824.50;6178398;23;49931;-73
2022/11/05 09:43:56;;;;;;;;;2.00;2.00;;;;;12.65;77.35;101811.72;6204792;22;49783;-78
2022/11/05 09:46:25;;;;;;;;;1.50;1.50;;;;;12.93;76.64;101837.06;6175400;23;51095;-73
2022/11/05 09:49:04;;;;;;;;;2.75;2.00;;;;;11.84;77.09;101650.44;6174948;23;49861;-80
2022/11/05 09:51:31;;;;;;;;;3.50;3.50;;;;;13.08;76.65;101823.44;6174960;23;49766;-76
2022/11/05 09:54:00;;;;;;;;;8.75;8.75;;;;;12.72;76.48;101766.22;6173385;23;49744;-74
2022/11/05 09:56:30;;;;;;;;;3.00;3.00;;;;;12.95;76.03;101794.97;6174674;23;52034;-74
2022/11/05 09:59:35;;;;;;;;;3.00;3.00;;;;;13.37;75.86;101830.44;6174857;23;49769;-73
2022/11/05 10:02:17;;;;;;;;;4.25;4.00;;;;;13.46;74.51;101835.94;6177763;23;49633;-75
2022/11/05 10:04:45;;;;;;;;;2.50;2.50;;;;;12.61;74.18;101691.28;6177072;23;49832;-84
2022/11/05 10:07:15;;;;;;;;;3.25;3.25;;;;;13.62;74.39;101833.72;6179732;23;49737;-74
2022/11/05 10:09:46;;;;;;;;;2.75;2.75;;;;;13.66;73.09;101823.25;6184138;23;49767;-77
2022/11/05 10:12:35;;;;;;;;;2.50;2.50;;;;;13.72;72.90;101814.63;6174734;23;49672;-77
2022/11/05 10:15:19;;;;;;;;;4.50;3.75;;;;;13.73;72.93;101811.13;6174825;23;49493;-73
2022/11/05 10:17:58;;;;;;;;;4.00;3.00;;;;;13.60;73.06;101794.06;6172982;23;50554;-73
2022/11/05 10:20:35;;;;;;;;;5.00;3.00;;;;;13.82;73.00;101818.38;6173459;23;50120;-80
2022/11/05 10:23:16;;;;;;;;;2.50;2.50;;;;;13.17;72.52;101698.03;6173017;23;49591;-73
2022/11/05 10:25:50;;;;;;;;;2.50;2.50;;;;;13.55;72.36;101763.16;6172967;23;49861;-74
2022/11/05 10:28:22;;;;;;;;;2.75;2.75;;;;;13.72;71.77;101794.41;6171966;23;50637;-75
2022/11/05 10:30:51;;;;;;;;;2.25;2.25;;;;;13.66;71.22;101791.59;6171852;23;49699;-75
2022/11/05 10:33:32;;;;;;;;;4.00;4.00;;;;;13.69;71.72;101791.66;6171845;23;49996;-74
2022/11/05 10:36:03;;;;;;;;;2.25;2.25;;;;;13.89;71.68;101823.81;6174433;23;49721;-73
2022/11/05 10:38:30;;;;;;;;;2.75;2.75;;;;;13.71;71.54;101799.66;6174026;23;51630;-73
2022/11/05 10:41:32;;;;;;;;;3.00;3.00;;;;;13.93;71.93;101832.72;6174929;23;49739;-73
2022/11/05 10:44:25;;;;;;;;;2.25;2.00;;;;;13.96;71.52;101838.06;6175071;23;49861;-72
2022/11/05 10:47:12;;;;;;;;;2.75;2.00;;;;;14.07;71.93;101827.75;6177016;23;49799;-74
2022/11/05 10:49:52;;;;;;;;;2.00;2.00;;;;;13.83;71.13;101767.38;6182282;23;50567;-73
2022/11/05 10:52:24;;;;;;;;;5.00;3.25;;;;;14.08;70.98;101806.66;6176371;23;49922;-73
2022/11/05 10:54:52;;;;;;;;;4.00;3.00;;;;;14.28;70.23;101823.88;6173763;23;49942;-73
2022/11/05 10:57:31;;;;;;;;;2.50;2.50;;;;;14.10;70.19;101791.78;6174990;23;49841;-73
2022/11/05 11:00:18;;;;;;;;;4.00;4.00;;;;;14.47;70.04;101832.22;6174363;23;49711;-73
2022/11/05 11:02:53;;;;;;;;;2.00;2.00;;;;;13.97;70.28;101731.59;6173517;23;49813;-73
2022/11/05 11:05:28;;;;;;;;;6.50;3.50;;;;;14.20;69.49;101772.63;6178055;23;49633;-73
2022/11/05 11:07:57;;;;;;;;;2.50;2.50;;;;;14.54;69.59;101824.47;6175616;23;49733;-75
2022/11/05 11:10:23;;;;;;;;;3.25;2.25;;;;;14.58;69.49;101820.16;6174484;23;49844;-73
2022/11/05 11:12:50;;;;;;;;;4.00;1.75;;;;;14.51;69.26;101816.47;6174243;23;49873;-73
2022/11/05 11:15:23;;;;;;;;;2.25;1.50;;;;;14.28;69.71;101749.00;6174482;23;49786;-73
2022/11/05 11:17:49;;;;;;;;;1.50;1.50;;;;;14.71;69.41;101816.00;6174449;23;49831;-73
2022/11/05 11:20:30;;;;;;;;;3.50;1.50;;;;;14.76;69.21;101827.56;6173617;23;50388;-73
2022/11/05 11:22:59;;;;;;;;;2.75;2.00;;;;;14.80;69.45;101813.56;6174168;23;49718;-73
2022/11/05 11:25:28;;;;;;;;;1.75;1.75;;;;;14.86;69.12;101816.28;6174032;23;49796;-73
2022/11/05 11:27:53;;;;;;;;;3.00;2.00;;;;;14.75;68.90;101787.00;6174501;23;49758;-74
2022/11/05 11:30:20;;;;;;;;;3.50;2.25;;;;;15.02;68.93;101807.81;6174073;23;49784;-74
2022/11/05 11:32:47;;;;;;;;;3.00;3.00;;;;;15.11;68.97;101802.69;6174342;23;49657;-74
2022/11/05 11:35:22;;;;;;;;;2.00;2.00;;;;;15.10;68.15;101773.59;6196465;22;49646;-74
2022/11/05 11:37:52;;;;;;;;;2.50;1.75;;;;;14.98;68.19;101739.88;6174411;23;49723;-72
2022/11/05 11:40:44;;;;;;;;;4.25;3.00;;;;;15.31;68.01;101787.19;6173723;23;50408;-74
2022/11/05 11:43:34;;;;;;;;;0.00;0.00;;;;;15.16;66.61;101749.91;6144327;23;49563;-76
2022/11/05 11:46:03;;;;;;;;;1.25;1.25;;;;;15.55;66.56;101781.44;6175156;23;49753;-76
2022/11/05 11:48:30;;;;;;;;;3.00;3.00;;;;;15.63;66.51;101776.28;6175398;23;49885;-74
2022/11/05 11:50:57;;;;;;;;;2.00;2.00;;;;;15.51;66.67;101739.00;6175024;23;49618;-74
2022/11/05 11:53:23;;;;;;;;;1.00;1.00;;;;;15.87;66.60;101781.97;6174986;23;49750;-74
2022/11/05 11:55:54;;;;;;;;;1.00;1.00;;;;;15.65;65.34;101733.13;6175498;23;49929;-80
2022/11/05 11:58:21;;;;;;;;;1.00;1.00;;;;;15.96;65.87;101771.53;6175698;23;49762;-81
2022/11/05 12:00:55;;;;;;;;;2.00;2.00;;;;;16.08;64.90;101780.53;6175507;23;49855;-76
2022/11/05 12:03:52;;;;;;;;;2.00;1.00;;;;;16.09;64.42;101774.34;6175360;23;49655;-76
2022/11/05 12:06:32;;;;;;;;;0.75;0.75;;;;;16.06;64.80;101764.59;6175739;23;49715;-76
2022/11/05 12:09:24;;;;;;;;;3.50;2.00;;;;;15.07;64.27;101623.69;6174797;23;49910;-77
2022/11/05 12:12:09;;;;;;;;;1.75;1.75;;;;;15.98;63.68;101767.13;6173275;23;49884;-76
2022/11/05 12:14:44;;;;;;;;;1.25;1.25;;;;;15.98;64.40;101763.59;6175269;23;49944;-77
2022/11/05 12:17:44;;;;;;;;;2.00;2.00;;;;;14.68;63.14;101579.00;6198391;22;49753;-76
2022/11/05 12:20:15;;;;;;;;;1.00;1.00;;;;;15.85;62.97;101756.38;6175403;23;49690;-77
2022/11/05 12:23:23;;;;;;;;;1.50;1.50;;;;;14.59;62.76;101548.00;6174366;23;49554;-77
2022/11/05 12:26:03;;;;;;;;;1.00;0.25;;;;;15.80;62.51;101745.69;6173725;23;49846;-77
2022/11/05 12:28:39;;;;;;;;;2.75;1.75;;;;;15.75;61.80;101757.97;6173242;23;49742;-77
2022/11/05 12:31:36;;;;;;;;;2.00;2.00;;;;;15.61;61.45;101767.44;6175810;23;49647;-76
2022/11/05 12:34:22;;;;;;;;;1.25;1.25;;;;;15.58;61.61;101751.50;6175351;23;50687;-76
2022/11/05 12:37:09;;;;;;;;;0.50;0.50;;;;;15.55;61.88;101752.34;6175247;23;49755;-76
2022/11/05 12:39:56;;;;;;;;;4.25;0.50;;;;;15.58;61.50;101744.44;6175316;23;49816;-74
2022/11/05 12:42:55;;;;;;;;;1.00;1.00;;;;;15.38;61.42;101701.78;6175537;23;49679;-75
2022/11/05 12:45:41;;;;;;;;;3.00;1.00;;;;;14.80;61.66;101608.25;6175009;23;50581;-75
2022/11/05 12:48:43;;;;;;;;;2.00;2.00;;;;;14.51;61.20;101533.78;6174755;23;49506;-75
2022/11/05 12:51:33;;;;;;;;;1.00;1.00;;;;;14.55;61.22;101508.28;6175282;23;49637;-75
2022/11/05 12:54:14;;;;;;;;;1.00;1.00;;;;;15.69;60.39;101699.63;6175462;23;49989;-75
2022/11/05 12:56:45;;;;;;;;;2.00;2.00;;;;;14.30;60.60;101455.03;6174154;23;50023;-75
2022/11/05 12:59:24;;;;;;;;;1.75;1.75;;;;;15.70;59.67;101701.41;6175114;23;49848;-74
2022/11/05 13:02:01;;;;;;;;;0.75;0.75;;;;;15.85;59.47;101721.94;6175102;23;49907;-75
2022/11/05 13:04:37;;;;;;;;;1.75;1.75;;;;;15.79;59.07;101716.53;6175002;23;49822;-74
2022/11/05 13:07:07;;;;;;;;;1.00;1.00;;;;;15.83;59.86;101719.28;6174903;23;49973;-74
2022/11/05 13:09:45;;;;;;;;;3.25;1.75;;;;;15.78;59.75;101714.75;6175362;23;49922;-76
2022/11/05 13:12:14;;;;;;;;;3.25;3.00;;;;;15.90;60.55;101720.22;6174532;23;49940;-74
2022/11/05 13:15:01;;;;;;;;;2.50;1.50;;;;;15.91;60.18;101704.34;6174587;23;49552;-75
2022/11/05 13:17:58;;;;;;;;;1.00;1.00;;;;;15.78;60.54;101675.06;6199068;22;49758;-69
2022/11/05 13:20:29;;;;;;;;;2.00;2.00;;;;;15.67;60.00;101661.66;6174476;22;50279;-75
2022/11/05 13:22:59;;;;;;;;;2.00;2.00;;;;;15.93;59.87;101697.34;6174986;23;49580;-76
2022/11/05 13:25:30;;;;;;;;;1.75;1.75;;;;;15.28;59.89;101599.34;6175202;23;49543;-75
2022/11/05 13:28:11;;;;;;;;;3.00;2.00;;;;;15.90;60.20;101705.22;6174635;23;49831;-75
2022/11/05 13:30:42;;;;;;;;;2.00;2.00;;;;;15.82;60.62;101700.69;6177070;23;49965;-75
2022/11/05 13:33:12;;;;;;;;;4.00;3.00;;;;;15.60;60.53;101667.69;6174603;23;49671;-75
2022/11/05 13:35:44;;;;;;;;;1.00;1.00;;;;;14.11;60.63;101431.81;6175450;23;50099;-77
2022/11/05 13:41:15;;;;;;;;;2.50;2.50;;;;;15.82;61.58;101711.28;6175229;23;49561;-78
2022/11/05 13:43:52;;;;;;;;;3.75;3.50;;;;;15.75;61.80;101707.69;6175018;23;49588;-76
2022/11/05 13:46:39;;;;;;;;;3.00;3.00;;;;;15.62;62.36;101709.22;6198478;22;49942;-78
2022/11/05 13:49:24;;;;;;;;;2.25;2.25;;;;;15.53;62.09;101703.75;6174109;23;49882;-77
2022/11/05 13:51:55;;;;;;;;;3.25;3.25;;;;;15.30;62.40;101671.66;6175468;23;49741;-81
2022/11/05 13:54:51;;;;;;;;;3.25;3.25;;;;;15.11;62.99;101659.00;6175703;23;49659;-80
2022/11/05 13:57:53;;;;;;;;;2.25;2.25;;;;;15.48;63.42;101704.56;6175866;23;49743;-80
2022/11/05 14:00:22;;;;;;;;;4.50;4.50;;;;;15.25;64.02;101677.72;6174917;23;49854;-79
2022/11/05 14:03:02;;;;;;;;;7.75;6.50;;;;;15.44;63.94;101700.97;6152618;23;49856;-78
2022/11/05 14:05:35;;;;;;;;;6.00;5.75;;;;;14.35;63.90;101515.84;6172650;23;49994;-80
2022/11/05 14:08:09;;;;;;;;;4.75;4.00;;;;;14.79;64.10;101614.41;6174738;23;49746;-78
2022/11/05 14:10:40;;;;;;;;;3.50;3.00;;;;;15.31;64.52;101686.66;6198149;22;52429;-80
2022/11/05 14:13:37;;;;;;;;;3.50;2.00;;;;;13.74;65.36;101425.88;6173300;23;49781;-81
2022/11/05 14:16:07;;;;;;;;;5.25;3.75;;;;;14.92;64.88;101643.69;6174124;23;49940;-80
2022/11/05 14:18:34;;;;;;;;;4.00;4.00;;;;;15.14;64.69;101701.34;6174859;23;49840;-82
2022/11/05 14:21:02;;;;;;;;;4.25;4.25;;;;;14.71;65.39;101650.38;6175035;23;50029;-75
2022/11/05 14:23:39;;;;;;;;;6.50;4.25;;;;;15.07;65.77;101718.91;6181809;23;49521;-82
2022/11/05 14:26:13;;;;;;;;;3.00;3.00;;;;;15.03;65.21;101710.88;6179780;23;49688;-77
2022/11/05 14:28:44;;;;;;;;;4.25;4.25;;;;;14.73;65.69;101684.78;6179201;23;49910;-79
2022/11/05 14:31:18;;;;;;;;;5.00;3.75;;;;;14.84;66.01;101707.88;6182054;23;50373;-73
2022/11/05 14:34:16;;;;;;;;;3.50;3.00;;;;;14.77;66.42;101711.31;6185964;23;49950;-73
2022/11/05 14:36:43;;;;;;;;;4.75;3.50;;;;;14.71;66.78;101699.72;6178013;23;49501;-74
2022/11/05 14:39:21;;;;;;;;;10.00;4.75;;;;;14.58;67.30;101685.38;6185092;23;49639;-73
2022/11/05 14:41:54;;;;;;;;;5.00;5.00;;;;;14.70;67.51;101695.28;6180366;23;51028;-83
2022/11/05 14:44:20;;;;;;;;;4.00;4.00;;;;;14.50;67.68;101650.00;6187270;23;49229;-88
2022/11/05 14:46:48;;;;;;;;;3.00;3.00;;;;;13.97;67.53;101554.75;6183903;23;49479;-77
2022/11/05 14:49:25;;;;;;;;;5.50;3.75;;;;;14.69;67.88;101686.47;6179269;23;49556;-77
2022/11/05 14:51:57;;;;;;;;;3.50;2.75;;;;;14.52;67.21;101658.84;6185502;23;49948;-74
2022/11/05 14:54:30;;;;;;;;;5.25;4.00;;;;;14.10;66.92;101592.84;6181130;23;49568;-82
2022/11/05 14:56:59;;;;;;;;;5.00;5.00;;;;;14.64;67.46;101684.59;6182712;23;49679;-77
2022/11/05 14:59:24;;;;;;;;;5.50;4.25;;;;;14.59;68.24;101679.25;6180250;23;49457;-76
2022/11/05 15:02:11;;;;;;;;;3.50;3.25;;;;;14.45;68.93;101663.09;6178395;23;50234;-82
2022/11/05 15:04:44;;;;;;;;;3.00;2.50;;;;;14.48;68.61;101665.84;6180123;23;49836;-79
2022/11/05 15:07:09;;;;;;;;;4.75;3.50;;;;;14.10;69.00;101575.25;6178131;23;49600;-75
2022/11/05 15:09:53;;;;;;;;;7.00;4.00;;;;;14.47;68.48;101660.50;6177002;23;49698;-81
2022/11/05 15:12:40;;;;;;;;;4.00;3.00;;;;;14.02;69.18;101579.50;6172828;23;50867;-80
2022/11/05 15:15:17;;;;;;;;;2.25;2.25;;;;;14.52;69.83;101682.63;6174552;23;49596;-83
2022/11/05 15:17:59;;;;;;;;;3.00;3.00;;;;;14.22;69.52;101625.66;6170955;23;49784;-81
2022/11/05 15:20:47;;;;;;;;;7.00;4.00;;;;;14.32;70.49;101654.03;6178425;23;49671;-82
2022/11/05 15:23:20;;;;;;;;;7.25;3.50;;;;;14.21;70.16;101628.28;6175472;23;50363;-79
2022/11/05 15:26:22;;;;;;;;;3.25;3.25;;;;;14.43;70.18;101680.66;6178671;23;49528;-81
2022/11/05 15:28:50;;;;;;;;;5.00;3.00;;;;;14.35;69.90;101682.25;6174941;23;49885;-79
2022/11/05 15:31:29;;;;;;;;;2.00;1.00;;;;;14.30;70.45;101684.81;6175659;23;49690;-79
2022/11/05 15:34:15;;;;;;;;;5.00;4.00;;;;;14.21;69.87;101681.09;6174323;23;50441;-80
2022/11/05 15:36:52;;;;;;;;;3.75;3.00;;;;;14.19;70.20;101681.06;6175184;23;49892;-78
2022/11/05 15:39:39;;;;;;;;;3.75;3.75;;;;;13.81;70.61;101623.94;6175580;23;49827;-78
2022/11/05 15:42:14;;;;;;;;;3.50;2.00;;;;;14.09;70.73;101689.66;6175461;23;49762;-78
2022/11/05 15:44:42;;;;;;;;;6.25;3.00;;;;;13.79;70.31;101647.63;6174843;23;49727;-78
2022/11/05 15:47:19;;;;;;;;;3.50;2.50;;;;;14.03;70.97;101686.88;6174210;23;49637;-78
2022/11/05 15:49:49;;;;;;;;;3.00;3.00;;;;;13.96;71.00;101685.84;6174557;23;49677;-77
2022/11/05 15:52:16;;;;;;;;;3.50;3.50;;;;;13.87;70.80;101690.03;6175688;23;49727;-77
2022/11/05 15:54:42;;;;;;;;;6.00;3.50;;;;;13.85;70.61;101675.91;6174332;23;49710;-80
2022/11/05 15:57:21;;;;;;;;;6.00;4.00;;;;;13.89;71.18;101668.06;6175273;23;49779;-80
2022/11/05 15:59:47;;;;;;;;;4.00;4.00;;;;;13.56;71.53;101631.28;6174431;23;49683;-81
2022/11/05 16:02:12;;;;;;;;;5.00;3.25;;;;;13.76;72.14;101681.88;6176892;23;49742;-89
2022/11/05 16:04:38;;;;;;;;;7.50;4.75;;;;;13.75;72.31;101685.38;6173996;23;49678;-81
2022/11/05 16:07:09;;;;;;;;;5.00;3.50;;;;;13.56;72.51;101648.88;6174695;23;49735;-82
2022/11/05 16:09:38;;;;;;;;;4.50;4.50;;;;;13.71;72.65;101683.53;6174348;23;49513;-79
2022/11/05 16:12:11;;;;;;;;;4.00;4.00;;;;;13.70;73.23;101685.28;6178593;23;49904;-79
2022/11/05 16:14:37;;;;;;;;;4.75;4.50;;;;;13.71;73.48;101684.41;6173727;23;50683;-83
2022/11/05 16:17:21;;;;;;;;;5.25;5.25;;;;;13.69;73.56;101690.50;6173888;23;49927;-81
2022/11/05 16:19:48;;;;;;;;;7.50;6.75;;;;;13.16;74.04;101598.72;6198641;22;49772;-84
2022/11/05 16:22:13;;;;;;;;;8.75;6.75;;;;;13.46;73.71;101651.31;6185549;23;49629;-81
2022/11/05 16:24:39;;;;;;;;;4.75;4.75;;;;;13.24;73.83;101605.94;6184925;23;49949;-80
2022/11/05 16:27:05;;;;;;;;;4.00;4.00;;;;;13.58;73.76;101676.19;6185047;23;49883;-75
2022/11/05 16:29:40;;;;;;;;;8.00;6.75;;;;;13.21;74.13;101619.91;6182993;23;49813;-74
2022/11/05 16:32:14;;;;;;;;;7.75;4.75;;;;;13.36;74.18;101651.06;6175120;23;49789;-84
2022/11/05 16:34:47;;;;;;;;;6.00;5.00;;;;;13.48;74.76;101687.38;6174412;23;49830;-83
2022/11/05 16:37:21;;;;;;;;;5.00;4.00;;;;;13.46;74.92;101671.50;6174443;23;49754;-84
2022/11/05 16:39:46;;;;;;;;;4.50;4.50;;;;;13.41;74.69;101697.78;6172080;23;49914;-76
2022/11/05 16:42:24;;;;;;;;;7.00;7.00;;;;;13.25;75.02;101655.19;6197243;22;50193;-79
2022/11/05 16:44:51;;;;;;;;;5.00;5.00;;;;;12.40;75.04;101525.69;6171689;23;51855;-78
2022/11/05 16:47:18;;;;;;;;;6.25;4.50;;;;;12.08;75.50;101502.91;6174351;23;49824;-81
2022/11/05 16:49:43;;;;;;;;;8.50;3.50;;;;;13.26;75.82;101671.03;6174717;23;49837;-81
2022/11/05 16:52:11;;;;;;;;;6.75;5.50;;;;;12.69;75.47;101567.66;6175348;23;49860;-80
2022/11/05 16:54:37;;;;;;;;;7.00;5.50;;;;;13.23;75.71;101662.19;6174093;23;49782;-79
2022/11/05 16:57:04;;;;;;;;;5.00;4.00;;;;;12.86;76.29;101619.94;6173180;23;50003;-80
2022/11/05 16:59:29;;;;;;;;;7.75;7.00;;;;;11.61;75.91;101413.06;6172721;23;50043;-78
2022/11/05 17:01:55;;;;;;;;;4.00;4.00;;;;;11.92;76.39;101454.25;6181384;23;49870;-78
2022/11/05 17:04:20;;;;;;;;;15.25;13.75;;;;;12.49;76.44;101599.66;6181768;23;50090;-79
2022/11/05 17:06:47;;;;;;;;;5.25;5.25;;;;;12.93;76.89;101652.59;6186196;23;49496;-76
2022/11/05 17:09:14;;;;;;;;;5.50;5.50;;;;;12.95;76.15;101628.94;6183000;23;49434;-78
2022/11/05 17:11:39;;;;;;;;;3.75;3.75;;;;;12.17;76.10;101518.94;6177510;23;49961;-77
2022/11/05 17:14:05;;;;;;;;;6.00;6.00;;;;;12.35;76.50;101561.53;6183593;23;50864;-78
2022/11/05 17:16:33;;;;;;;;;5.00;5.00;;;;;12.44;76.59;101553.88;6184326;23;49904;-75
2022/11/05 17:18:58;;;;;;;;;8.75;5.75;;;;;12.73;76.11;101604.66;6179463;23;49823;-77
2022/11/05 17:21:23;;;;;;;;;6.25;6.00;;;;;12.65;76.50;101600.97;6178395;23;49837;-82
2022/11/05 17:23:49;;;;;;;;;10.75;8.25;;;;;11.78;76.53;101469.63;6198995;22;51194;-82
2022/11/05 17:26:14;;;;;;;;;6.00;4.25;;;;;12.82;76.79;101628.59;6169854;23;49603;-85
2022/11/05 17:28:41;;;;;;;;;6.00;4.75;;;;;12.24;76.45;101544.56;6164928;23;49776;-80
2022/11/05 17:31:10;;;;;;;;;9.75;7.25;;;;;12.48;76.50;101583.81;6167120;23;49804;-81
2022/11/05 17:33:35;;;;;;;;;11.75;9.75;;;;;13.04;76.51;101676.59;6164815;23;50679;-82
2022/11/05 17:36:06;;;;;;;;;8.75;8.25;;;;;12.49;76.75;101601.41;6171357;23;61584;-82
2022/11/05 17:38:31;;;;;;;;;5.75;5.75;;;;;12.84;76.96;101640.09;6167559;23;50115;-86
2022/11/05 17:40:56;;;;;;;;;7.50;7.50;;;;;12.81;76.94;101661.06;6174401;23;49596;-79
2022/11/05 17:43:22;;;;;;;;;7.25;7.00;;;;;13.01;77.13;101680.03;6164471;23;49705;-82
2022/11/05 17:45:50;;;;;;;;;11.50;10.00;;;;;12.45;77.15;101573.19;6166073;23;49803;-79
2022/11/05 17:48:17;;;;;;;;;14.00;11.75;;;;;12.84;77.42;101636.56;6168489;23;49577;-79
2022/11/05 17:50:45;;;;;;;;;11.00;8.00;;;;;13.04;77.35;101680.13;6174963;23;49528;-80
2022/11/05 17:53:12;;;;;;;;;11.25;9.75;;;;;13.01;77.34;101689.69;6169565;23;49627;-78
2022/11/05 17:55:42;;;;;;;;;19.50;18.50;;;;;12.82;77.81;101662.84;6171114;23;49613;-76
2022/11/05 17:58:08;;;;;;;;;7.25;6.00;;;;;12.76;77.46;101646.03;6169912;23;49717;-76
2022/11/05 18:00:34;;;;;;;;;9.00;7.75;;;;;13.05;77.71;101694.22;6165341;23;50280;-75
2022/11/05 18:03:00;;;;;;;;;8.00;7.75;;;;;12.78;77.31;101684.72;6162224;23;50185;-74
2022/11/05 18:05:26;;;;;;;;;7.50;6.50;;;;;13.03;77.42;101696.81;6167462;23;50069;-77
2022/11/05 18:07:53;;;;;;;;;10.75;10.00;;;;;11.79;77.16;101484.56;6165886;23;49543;-77
2022/11/05 18:10:18;;;;;;;;;9.00;9.00;;;;;13.05;76.98;101681.03;6167151;23;49703;-77
2022/11/05 18:12:44;;;;;;;;;13.75;10.50;;;;;12.31;77.57;101565.84;6139767;23;51507;-77
2022/11/05 18:15:11;;;;;;;;;8.25;8.25;;;;;12.96;77.66;101689.59;6166513;23;49798;-77
2022/11/05 18:17:37;;;;;;;;;11.25;10.00;;;;;12.68;77.63;101650.19;6166507;23;49910;-77
2022/11/05 18:20:06;;;;;;;;;13.00;11.50;;;;;11.43;77.40;101414.31;6166197;23;49987;-77
2022/11/05 18:22:31;;;;;;;;;9.75;9.50;;;;;12.82;77.96;101648.78;6174482;23;49790;-78
2022/11/05 18:24:56;;;;;;;;;9.25;9.25;;;;;11.41;77.82;101442.31;6174537;23;49610;-78
2022/11/05 18:27:26;;;;;;;;;13.25;12.00;;;;;12.97;78.13;101707.19;6175177;23;49536;-76
2022/11/05 18:29:51;;;;;;;;;10.50;9.00;;;;;12.03;78.29;101569.47;6174943;23;49749;-77
2022/11/05 18:32:17;;;;;;;;;11.50;9.25;;;;;11.91;78.62;101537.53;6174109;23;50518;-77
2022/11/05 18:34:42;;;;;;;;;7.50;6.00;;;;;11.77;78.60;101496.75;6174753;23;50070;-78
2022/11/05 18:37:07;;;;;;;;;11.00;10.00;;;;;11.58;78.14;101494.47;6175083;23;49710;-76
2022/11/05 18:39:33;;;;;;;;;10.25;10.00;;;;;11.86;78.21;101522.47;6173948;23;49640;-78
2022/11/05 18:41:58;;;;;;;;;12.75;9.75;;;;;13.05;78.25;101696.84;6177296;23;50549;-79
2022/11/05 18:44:23;;;;;;;;;9.25;7.50;;;;;12.98;78.70;101681.72;6180451;23;54959;-76
2022/11/05 18:46:49;;;;;;;;;11.25;10.25;;;;;13.04;78.67;101682.78;6174247;23;49473;-74
2022/11/05 18:49:15;;;;;;;;;12.50;11.50;;;;;12.88;78.49;101662.13;6175209;23;49762;-77
2022/11/05 18:51:40;;;;;;;;;8.00;8.00;;;;;12.95;79.01;101679.00;6183443;23;49663;-74
2022/11/05 18:54:07;;;;;;;;;9.75;7.75;;;;;12.98;78.84;101684.34;6174746;23;49912;-75
2022/11/05 18:56:33;;;;;;;;;10.75;10.00;;;;;12.83;79.08;101647.94;6173045;23;49751;-73
2022/11/05 18:58:58;;;;;;;;;10.25;9.50;;;;;12.87;78.99;101634.91;6174305;23;49684;-70
2022/11/05 19:01:26;;;;;;;;;13.00;11.25;;;;;12.03;78.55;101527.34;6198878;22;51343;-72
2022/11/05 19:03:53;;;;;;;;;10.75;10.75;;;;;12.37;78.49;101565.13;6174998;23;49671;-72
2022/11/05 19:06:20;;;;;;;;;9.00;9.00;;;;;12.90;78.55;101639.34;6173132;23;49960;-72
2022/11/05 19:08:46;;;;;;;;;12.50;11.00;;;;;12.18;79.17;101552.31;6172864;23;49557;-74
2022/11/05 19:11:18;;;;;;;;;12.25;10.75;;;;;12.95;79.19;101661.44;6174491;23;49894;-73
2022/11/05 19:13:43;;;;;;;;;11.75;10.50;;;;;12.56;79.10;101606.00;6175268;23;49967;-72
2022/11/05 19:16:12;;;;;;;;;17.25;13.75;;;;;12.87;79.61;101657.72;6175502;23;49806;-72
2022/11/05 19:18:38;;;;;;;;;11.25;11.25;;;;;12.85;79.64;101646.25;6176314;23;49524;-72
2022/11/05 19:21:16;;;;;;;;;11.00;10.75;;;;;12.22;79.29;101559.44;6184114;23;50208;-71
2022/11/05 19:23:41;;;;;;;;;11.50;11.50;;;;;11.35;79.52;101422.84;6187190;23;49943;-73
2022/11/05 19:26:10;;;;;;;;;12.00;10.75;;;;;12.72;79.76;101646.78;6184418;23;49371;-71
2022/11/05 19:28:36;;;;;;;;;11.75;10.00;;;;;11.43;79.60;101456.41;6183208;23;50047;-71
2022/11/05 19:31:02;;;;;;;;;13.00;11.00;;;;;12.85;79.79;101664.72;6176466;23;50352;-73
2022/11/05 19:33:28;;;;;;;;;14.00;12.25;;;;;12.85;79.77;101685.78;6174116;23;49741;-72
2022/11/05 19:35:54;;;;;;;;;6.00;5.00;;;;;12.69;79.85;101641.44;6174536;23;49614;-72
2022/11/05 19:38:19;;;;;;;;;10.25;9.00;;;;;11.15;79.82;101381.13;6171935;23;50121;-73
2022/11/05 19:40:45;;;;;;;;;11.75;11.75;;;;;12.29;79.57;101542.97;6175103;23;49961;-73